Time;durP1;ratioP1;P1;durP2;ratioP2;P2;SDS_P1;SDS_P2;PMS_P1;PMS_P2;Temp;Humidity;BMP_temperature;BMP_pressure;BME280_temperature;BME280_humidity;BME280_pressure;Samples;Min_cycle;Max_cycle;Signal;HPM_P1;HPM_P2
2021/12/31 04:00:58;;;;;;;2.43;1.00;;;12.90;78.90;;;;;;5861425;22;20516;-73
2021/12/31 04:03:25;;;;;;;2.13;0.83;;;12.80;79.00;;;;;;5034294;28;20481;-73
2021/12/31 04:05:51;;;;;;;2.20;0.80;;;12.70;79.40;;;;;;5034214;28;20439;-73
2021/12/31 04:08:19;;;;;;;2.27;0.83;;;12.60;79.80;;;;;;5034425;28;20435;-73
2021/12/31 04:10:46;;;;;;;2.20;0.90;;;12.50;80.40;;;;;;5034069;28;20467;-73
2021/12/31 04:13:12;;;;;;;2.40;0.80;;;12.50;80.60;;;;;;5034109;28;20439;-73
2021/12/31 04:15:39;;;;;;;2.00;0.73;;;12.50;80.60;;;;;;5074417;23;20540;-74
2021/12/31 04:18:07;;;;;;;2.33;0.93;;;12.50;80.40;;;;;;5053897;28;20490;-74
2021/12/31 04:20:37;;;;;;;2.20;1.00;;;12.50;80.20;;;;;;5053937;28;20446;-77
2021/12/31 04:23:08;;;;;;;2.23;0.80;;;12.50;80.40;;;;;;5053853;28;20918;-75
2021/12/31 04:25:36;;;;;;;2.07;0.80;;;12.40;80.20;;;;;;5053773;28;20466;-75
2021/12/31 04:28:04;;;;;;;2.10;0.90;;;12.40;80.40;;;;;;5053765;28;20505;-74
2021/12/31 04:30:30;;;;;;;2.10;0.80;;;12.40;80.90;;;;;;5053751;28;20446;-74
2021/12/31 04:32:58;;;;;;;2.17;0.80;;;12.30;81.20;;;;;;5053702;28;20446;-74
2021/12/31 04:35:26;;;;;;;2.27;1.07;;;12.30;81.50;;;;;;5053609;28;20470;-75
2021/12/31 04:37:53;;;;;;;2.10;0.80;;;12.30;81.50;;;;;;5053541;28;20482;-74
2021/12/31 04:40:19;;;;;;;2.10;0.87;;;12.20;81.80;;;;;;5053631;28;20501;-75
2021/12/31 04:42:47;;;;;;;2.30;0.90;;;12.20;81.90;;;;;;5053561;28;20450;-75
2021/12/31 04:45:14;;;;;;;2.30;1.00;;;12.20;82.00;;;;;;5053391;28;20839;-75
2021/12/31 04:47:41;;;;;;;2.20;0.93;;;12.20;81.90;;;;;;5053164;28;20956;-74
2021/12/31 04:50:08;;;;;;;2.50;0.80;;;12.10;82.10;;;;;;5053444;28;20447;-75
2021/12/31 04:52:36;;;;;;;2.30;0.90;;;12.10;82.30;;;;;;5053466;28;20451;-74
2021/12/31 04:55:04;;;;;;;2.20;0.80;;;12.00;82.40;;;;;;5053339;28;20474;-75
2021/12/31 04:57:30;;;;;;;2.10;0.90;;;11.90;82.10;;;;;;5053361;28;20505;-74
2021/12/31 04:59:57;;;;;;;2.23;0.83;;;11.90;82.60;;;;;;5053378;28;20515;-74
2021/12/31 05:02:24;;;;;;;2.10;0.80;;;11.80;83.10;;;;;;5053306;28;20865;-75
2021/12/31 05:04:50;;;;;;;2.40;0.83;;;11.80;83.50;;;;;;5052960;28;20462;-75
2021/12/31 05:07:17;;;;;;;2.10;0.80;;;11.80;83.40;;;;;;5053283;28;20443;-75
2021/12/31 05:09:45;;;;;;;2.30;0.80;;;11.90;83.10;;;;;;5053543;28;20507;-75
2021/12/31 05:12:15;;;;;;;2.40;1.00;;;11.90;83.10;;;;;;5053292;28;20462;-75
2021/12/31 05:14:42;;;;;;;2.10;0.90;;;12.00;82.70;;;;;;5052955;28;21015;-75
2021/12/31 05:17:09;;;;;;;2.13;0.80;;;12.00;82.10;;;;;;5053116;28;20492;-75
2021/12/31 05:19:36;;;;;;;2.10;0.80;;;12.00;81.50;;;;;;5053172;28;20888;-75
2021/12/31 05:22:03;;;;;;;3.63;1.30;;;11.90;82.10;;;;;;5053168;28;20446;-75
2021/12/31 05:24:29;;;;;;;3.13;0.90;;;11.90;82.10;;;;;;5052777;28;20890;-75
2021/12/31 05:26:57;;;;;;;2.10;0.83;;;11.90;81.90;;;;;;5052796;28;20447;-75
2021/12/31 05:29:24;;;;;;;2.30;1.10;;;11.80;82.20;;;;;;5053131;28;20446;-75
2021/12/31 05:31:51;;;;;;;2.10;0.77;;;11.60;83.10;;;;;;5053054;28;20549;-75
2021/12/31 05:34:17;;;;;;;2.10;0.90;;;11.40;83.50;;;;;;5052954;28;20524;-75
2021/12/31 05:36:44;;;;;;;2.17;0.90;;;11.30;84.40;;;;;;5052596;28;20929;-75
2021/12/31 05:39:13;;;;;;;2.30;0.90;;;11.00;85.50;;;;;;5052982;28;20458;-75
2021/12/31 05:41:40;;;;;;;2.40;1.10;;;11.00;86.90;;;;;;5052673;28;20896;-75
2021/12/31 05:44:08;;;;;;;2.30;0.90;;;10.90;87.70;;;;;;5052834;28;20474;-75
2021/12/31 05:46:34;;;;;;;2.87;1.00;;;10.90;87.90;;;;;;5052615;28;20450;-75
2021/12/31 05:49:02;;;;;;;2.27;1.00;;;11.00;87.90;;;;;;5052895;28;20454;-75
2021/12/31 05:51:30;;;;;;;2.03;0.80;;;10.90;88.60;;;;;;5052928;28;20496;-75
2021/12/31 05:53:56;;;;;;;2.33;1.00;;;10.90;89.70;;;;;;5053143;28;20485;-75
2021/12/31 05:56:23;;;;;;;2.00;0.80;;;10.90;89.30;;;;;;5054598;28;20995;-75
2021/12/31 05:58:50;;;;;;;2.47;1.20;;;10.90;88.90;;;;;;5056483;28;20905;-75
2021/12/31 06:01:18;;;;;;;2.53;1.03;;;10.90;88.80;;;;;;5056769;28;20446;-75
2021/12/31 06:03:45;;;;;;;2.60;1.10;;;10.90;88.70;;;;;;5056705;28;20450;-75
2021/12/31 06:06:11;;;;;;;2.20;0.90;;;10.90;89.10;;;;;;5056666;28;20473;-75
2021/12/31 06:08:38;;;;;;;2.30;0.90;;;11.00;88.40;;;;;;5056513;28;20439;-75
2021/12/31 06:11:05;;;;;;;2.00;0.80;;;11.00;87.80;;;;;;5056545;28;20442;-75
2021/12/31 06:13:31;;;;;;;2.70;1.00;;;11.00;87.40;;;;;;5056386;28;20457;-75
2021/12/31 06:15:58;;;;;;;2.23;1.03;;;10.90;87.70;;;;;;5055873;28;20504;-75
2021/12/31 06:18:28;;;;;;;2.80;0.90;;;10.90;87.40;;;;;;5056152;28;20927;-75
2021/12/31 06:20:55;;;;;;;2.67;1.00;;;10.90;87.50;;;;;;5056263;28;20442;-75
2021/12/31 06:23:21;;;;;;;2.20;1.00;;;10.70;88.50;;;;;;5055894;28;20885;-75
2021/12/31 06:25:48;;;;;;;2.13;0.90;;;10.80;88.50;;;;;;5055772;28;21047;-75
2021/12/31 06:28:15;;;;;;;2.10;0.90;;;10.80;88.30;;;;;;5056121;28;20496;-75
2021/12/31 06:30:41;;;;;;;2.20;0.90;;;10.90;88.20;;;;;;5056107;28;20446;-75
2021/12/31 06:33:08;;;;;;;2.23;0.90;;;11.00;88.10;;;;;;5056546;28;20446;-75
2021/12/31 06:35:36;;;;;;;2.40;1.00;;;11.10;87.90;;;;;;5055958;28;20524;-74
2021/12/31 06:38:03;;;;;;;2.20;1.00;;;11.10;87.90;;;;;;5055915;28;20489;-75
2021/12/31 06:40:31;;;;;;;2.13;0.97;;;11.10;87.50;;;;;;5055883;28;20496;-75
2021/12/31 06:42:58;;;;;;;2.13;1.00;;;11.20;86.80;;;;;;5055849;28;20449;-75
2021/12/31 06:45:25;;;;;;;2.77;0.93;;;11.20;87.10;;;;;;5055821;28;20474;-75
2021/12/31 06:47:51;;;;;;;2.20;1.00;;;11.20;86.80;;;;;;5055725;28;20442;-75
2021/12/31 06:50:18;;;;;;;2.20;0.97;;;11.10;87.30;;;;;;5056368;28;20500;-75
2021/12/31 06:52:46;;;;;;;2.40;1.20;;;11.10;87.00;;;;;;5055324;28;20933;-75
2021/12/31 06:55:13;;;;;;;2.80;1.10;;;10.90;88.00;;;;;;5055922;28;20472;-75
2021/12/31 06:57:40;;;;;;;2.10;0.90;;;10.90;88.10;;;;;;5055371;28;20486;-75
2021/12/31 07:00:09;;;;;;;2.40;0.90;;;10.80;88.60;;;;;;5055280;28;20446;-75
2021/12/31 07:02:36;;;;;;;2.40;1.07;;;10.80;88.50;;;;;;5055144;28;20451;-75
2021/12/31 07:05:02;;;;;;;2.10;0.90;;;10.80;88.60;;;;;;5055427;28;20888;-75
2021/12/31 07:07:29;;;;;;;2.40;1.27;;;10.80;88.20;;;;;;5054169;28;20504;-75
2021/12/31 07:09:57;;;;;;;2.30;1.10;;;10.80;88.30;;;;;;5055086;28;20435;-75
2021/12/31 07:12:24;;;;;;;2.50;1.17;;;10.90;88.10;;;;;;5054892;28;20941;-75
2021/12/31 07:14:50;;;;;;;2.40;1.13;;;10.90;87.70;;;;;;5054947;28;20520;-75
2021/12/31 07:17:17;;;;;;;2.40;1.13;;;10.90;87.00;;;;;;5055079;28;20446;-75
2021/12/31 07:19:44;;;;;;;2.40;1.17;;;10.80;86.80;;;;;;5055187;28;20442;-75
2021/12/31 07:22:11;;;;;;;2.80;1.10;;;10.70;87.10;;;;;;5055103;28;20496;-75
2021/12/31 07:24:37;;;;;;;2.60;1.10;;;10.70;88.10;;;;;;5054865;28;20558;-74
2021/12/31 07:27:05;;;;;;;2.60;1.30;;;10.60;88.80;;;;;;5054953;28;20533;-75
2021/12/31 07:29:32;;;;;;;2.57;1.17;;;10.70;89.00;;;;;;5054943;28;20439;-75
2021/12/31 07:31:59;;;;;;;3.07;1.30;;;10.50;89.90;;;;;;5054847;28;20453;-75
2021/12/31 07:34:27;;;;;;;2.63;1.40;;;10.50;90.50;;;;;;5054765;28;20477;-75
2021/12/31 07:36:54;;;;;;;2.23;1.07;;;10.50;90.30;;;;;;5054797;28;20442;-75
2021/12/31 07:39:23;;;;;;;3.80;1.50;;;10.50;90.20;;;;;;5054360;28;20981;-75
2021/12/31 07:41:50;;;;;;;2.27;1.23;;;10.60;90.10;;;;;;5054670;28;20457;-75
2021/12/31 07:44:18;;;;;;;2.60;1.60;;;10.60;90.40;;;;;;5054615;28;20478;-75
2021/12/31 07:46:46;;;;;;;2.53;1.30;;;10.60;90.30;;;;;;5054623;28;20442;-75
2021/12/31 07:49:13;;;;;;;2.30;1.20;;;10.70;90.10;;;;;;5054457;28;20450;-75
2021/12/31 07:51:39;;;;;;;2.53;1.30;;;10.70;90.70;;;;;;5054575;28;20492;-75
2021/12/31 07:54:06;;;;;;;2.10;1.00;;;10.90;90.60;;;;;;5054094;28;21011;-75
2021/12/31 07:56:33;;;;;;;3.07;1.67;;;11.20;89.40;;;;;;5054105;28;20945;-75
2021/12/31 07:58:59;;;;;;;2.30;1.10;;;11.40;88.20;;;;;;5053975;28;21005;-75
2021/12/31 08:01:27;;;;;;;2.33;1.27;;;11.40;88.40;;;;;;5054302;28;20876;-75
2021/12/31 08:03:54;;;;;;;2.40;1.33;;;11.60;88.20;;;;;;5054186;28;20454;-75
2021/12/31 08:06:21;;;;;;;2.30;1.20;;;11.80;87.20;;;;;;5053899;28;20806;-75
2021/12/31 08:08:47;;;;;;;2.40;1.20;;;12.00;86.30;;;;;;5053924;28;20992;-75
2021/12/31 08:11:14;;;;;;;2.80;1.60;;;12.10;85.60;;;;;;5053847;28;21003;-75
2021/12/31 08:13:41;;;;;;;3.07;1.33;;;12.20;85.60;;;;;;5053741;28;20999;-75
2021/12/31 08:16:07;;;;;;;2.67;1.50;;;12.20;85.30;;;;;;5054930;28;20446;-75
2021/12/31 08:18:35;;;;;;;3.63;1.30;;;12.10;85.50;;;;;;5053668;28;20482;-74
2021/12/31 08:21:02;;;;;;;2.50;1.33;;;12.10;86.10;;;;;;5053995;28;20455;-75
2021/12/31 08:23:29;;;;;;;2.40;1.30;;;12.10;85.90;;;;;;5053595;28;20938;-75
2021/12/31 08:25:55;;;;;;;2.40;1.33;;;12.30;85.70;;;;;;5054348;28;20520;-75
2021/12/31 08:28:22;;;;;;;3.00;1.30;;;12.40;84.90;;;;;;5053827;28;20438;-75
2021/12/31 08:30:48;;;;;;;2.60;1.30;;;12.50;84.80;;;;;;5053811;28;20476;-75
2021/12/31 08:33:15;;;;;;;2.90;1.70;;;12.70;84.40;;;;;;5053783;28;20446;-75
2021/12/31 08:35:43;;;;;;;2.43;1.13;;;12.80;83.80;;;;;;5053322;28;20842;-75
2021/12/31 08:38:10;;;;;;;2.40;1.20;;;12.70;83.70;;;;;;5053584;28;20567;-75
2021/12/31 08:40:37;;;;;;;2.50;1.50;;;12.40;84.80;;;;;;5053634;28;20442;-75
2021/12/31 08:43:03;;;;;;;2.90;1.70;;;12.40;85.30;;;;;;5053576;28;20549;-75
2021/12/31 08:45:30;;;;;;;2.77;1.40;;;12.20;86.00;;;;;;5053503;28;20474;-75
2021/12/31 08:47:58;;;;;;;2.50;1.20;;;12.00;87.20;;;;;;5053509;28;20499;-75
2021/12/31 08:50:25;;;;;;;2.97;1.43;;;12.20;86.90;;;;;;5053386;28;20533;-75
2021/12/31 08:52:54;;;;;;;2.70;1.60;;;12.20;86.80;;;;;;5053161;28;20457;-75
2021/12/31 08:55:21;;;;;;;3.30;1.60;;;12.40;86.60;;;;;;5053357;28;20470;-75
2021/12/31 08:57:48;;;;;;;2.70;1.83;;;12.70;85.60;;;;;;5053632;28;20459;-75
2021/12/31 09:00:16;;;;;;;2.70;1.73;;;13.30;83.70;;;;;;5053354;28;20492;-75
2021/12/31 09:02:45;;;;;;;2.60;1.53;;;13.60;82.40;;;;;;5053376;28;20469;-75
2021/12/31 09:05:12;;;;;;;2.57;1.57;;;13.50;82.40;;;;;;5053555;28;20463;-75
2021/12/31 09:07:39;;;;;;;2.93;1.83;;;13.40;82.70;;;;;;5053345;28;20446;-75
2021/12/31 09:10:08;;;;;;;2.50;1.43;;;13.50;82.80;;;;;;5053395;28;20445;-75
2021/12/31 09:12:35;;;;;;;2.73;1.63;;;13.30;83.20;;;;;;5053474;28;20453;-75
2021/12/31 09:15:02;;;;;;;2.80;1.87;;;13.10;84.10;;;;;;5054158;28;20507;-75
2021/12/31 09:17:29;;;;;;;2.90;1.80;;;13.10;84.00;;;;;;5053298;28;20439;-75
2021/12/31 09:19:55;;;;;;;2.70;1.60;;;13.00;84.20;;;;;;5052793;28;21001;-75
2021/12/31 09:22:22;;;;;;;2.80;1.50;;;12.80;84.90;;;;;;5052840;28;20858;-75
2021/12/31 09:24:49;;;;;;;2.63;1.53;;;12.50;86.20;;;;;;5053089;28;20520;-75
2021/12/31 09:27:17;;;;;;;2.90;2.10;;;12.30;87.10;;;;;;5053085;28;20538;-75
2021/12/31 09:29:45;;;;;;;2.60;1.70;;;12.40;87.70;;;;;;5052821;28;20446;-75
2021/12/31 09:32:12;;;;;;;2.70;1.70;;;12.40;87.20;;;;;;5056207;28;20933;-75
2021/12/31 09:34:42;;;;;;;2.90;2.00;;;12.60;86.80;;;;;;5056677;28;20879;-75
2021/12/31 09:37:10;;;;;;;2.57;1.80;;;12.50;86.90;;;;;;5057147;28;20437;-74
2021/12/31 09:39:36;;;;;;;3.10;2.33;;;12.70;86.70;;;;;;5056958;28;20539;-75
2021/12/31 09:42:04;;;;;;;2.93;1.97;;;12.90;86.50;;;;;;5056936;28;20459;-75
2021/12/31 09:44:33;;;;;;;2.67;1.73;;;12.90;85.70;;;;;;5056874;28;20529;-75
2021/12/31 09:47:00;;;;;;;3.27;2.23;;;12.90;85.50;;;;;;5056825;28;20454;-75
2021/12/31 09:49:27;;;;;;;2.60;1.67;;;12.80;85.90;;;;;;5056758;28;20453;-75
2021/12/31 09:51:54;;;;;;;2.60;1.83;;;12.70;85.90;;;;;;5056646;28;21098;-75
2021/12/31 09:54:22;;;;;;;3.10;2.00;;;12.80;86.30;;;;;;5057098;28;20567;-76
2021/12/31 09:56:50;;;;;;;3.00;2.10;;;12.70;86.50;;;;;;5056644;28;20446;-76
2021/12/31 09:59:17;;;;;;;3.53;2.00;;;12.60;86.80;;;;;;5056405;28;20527;-76
2021/12/31 10:01:49;;;;;;;3.20;1.93;;;12.50;86.90;;;;;;5056432;28;20454;-76
2021/12/31 10:04:16;;;;;;;3.33;2.00;;;12.60;86.90;;;;;;5056312;28;20470;-76
2021/12/31 10:07:07;;;;;;;2.83;2.00;;;12.50;86.60;;;;;;5056923;28;20460;-76
2021/12/31 10:09:35;;;;;;;3.50;1.90;;;12.70;87.30;;;;;;5056435;28;20425;-76
2021/12/31 10:12:02;;;;;;;3.17;1.80;;;12.90;86.80;;;;;;5056540;28;20453;-76
2021/12/31 10:14:36;;;;;;;3.00;1.77;;;13.20;85.90;;;;;;5077575;22;21746;-75
2021/12/31 10:17:05;;;;;;;2.60;1.60;;;13.30;84.90;;;;;;5036236;28;20447;-75
2021/12/31 10:19:32;;;;;;;2.60;1.80;;;13.60;84.90;;;;;;5036046;28;20478;-75
2021/12/31 10:21:59;;;;;;;2.80;1.90;;;13.80;84.10;;;;;;5036117;28;20497;-75
2021/12/31 10:24:28;;;;;;;2.93;1.77;;;14.00;84.00;;;;;;5036038;28;20505;-75
2021/12/31 10:26:56;;;;;;;2.90;1.70;;;14.10;82.10;;;;;;5036112;28;20457;-75
2021/12/31 10:29:23;;;;;;;3.40;1.90;;;13.80;82.40;;;;;;5036019;28;20447;-75
2021/12/31 10:31:52;;;;;;;2.97;1.90;;;13.60;83.20;;;;;;5035976;28;20505;-75
2021/12/31 10:34:29;;;;;;;2.80;1.90;;;13.50;84.30;;;;;;5035539;28;20950;-75
2021/12/31 10:36:58;;;;;;;2.60;1.50;;;13.50;83.50;;;;;;5035936;28;20451;-75
2021/12/31 10:39:27;;;;;;;2.40;1.33;;;13.30;84.50;;;;;;5035778;28;20483;-74
2021/12/31 10:42:04;;;;;;;3.40;2.03;;;13.00;84.60;;;;;;5035640;28;20451;-75
2021/12/31 10:44:45;;;;;;;2.70;1.70;;;13.10;85.20;;;;;;5035922;28;20466;-75
2021/12/31 10:47:13;;;;;;;3.37;2.23;;;13.30;85.20;;;;;;5035683;28;20822;-75
2021/12/31 10:50:11;;;;;;;2.83;1.70;;;13.50;84.50;;;;;;5037185;28;20443;-75
2021/12/31 10:52:42;;;;;;;2.50;1.80;;;13.70;85.00;;;;;;5045437;28;20946;-75
2021/12/31 10:55:20;;;;;;;2.63;1.60;;;13.80;83.50;;;;;;5045363;28;20495;-76
2021/12/31 10:57:48;;;;;;;2.90;1.77;;;14.10;81.90;;;;;;5045370;28;20428;-75
2021/12/31 11:00:17;;;;;;;2.83;1.33;;;15.30;79.30;;;;;;5045157;28;20487;-75
2021/12/31 11:02:44;;;;;;;2.60;1.40;;;16.80;73.70;;;;;;5045822;28;20447;-75
2021/12/31 11:05:16;;;;;;;2.57;1.50;;;17.30;71.40;;;;;;5040846;28;20471;-75
2021/12/31 11:07:43;;;;;;;2.60;1.60;;;17.50;70.00;;;;;;5035759;28;20515;-76
2021/12/31 11:10:11;;;;;;;2.60;1.70;;;16.20;73.70;;;;;;5035562;28;20443;-75
2021/12/31 11:12:42;;;;;;;2.50;1.50;;;15.90;75.80;;;;;;5034936;28;20866;-76
2021/12/31 11:15:10;;;;;;;2.60;1.47;;;15.80;75.80;;;;;;5034778;28;21002;-75
2021/12/31 11:17:37;;;;;;;2.67;1.67;;;15.30;76.90;;;;;;5035154;28;20505;-75
2021/12/31 11:20:06;;;;;;;3.10;1.80;;;15.00;78.10;;;;;;5035047;28;20529;-75
2021/12/31 11:22:34;;;;;;;2.67;1.40;;;15.10;79.00;;;;;;5035167;28;20859;-75
2021/12/31 11:25:25;;;;;;;2.50;1.40;;;14.90;79.10;;;;;;5034943;28;20474;-75
2021/12/31 11:27:52;;;;;;;2.43;1.10;;;14.90;79.10;;;;;;5035060;28;20498;-75
2021/12/31 11:30:34;;;;;;;2.50;1.33;;;14.80;79.20;;;;;;5034966;28;20451;-75
2021/12/31 11:33:09;;;;;;;2.30;1.20;;;14.60;80.60;;;;;;5034928;28;20431;-76
2021/12/31 11:35:39;;;;;;;2.50;1.20;;;14.70;79.70;;;;;;5034987;28;20479;-75
2021/12/31 11:38:10;;;;;;;2.70;1.40;;;14.30;80.00;;;;;;5034818;28;20521;-75
2021/12/31 11:40:39;;;;;;;2.80;1.63;;;14.10;81.20;;;;;;5034980;28;20517;-75
2021/12/31 11:43:22;;;;;;;2.50;1.37;;;14.30;82.00;;;;;;5034607;28;20510;-75
2021/12/31 11:46:27;;;;;;;2.50;1.30;;;14.30;81.70;;;;;;5034642;28;20471;-75
2021/12/31 11:48:57;;;;;;;2.63;1.63;;;14.20;81.40;;;;;;5034536;28;20444;-75
2021/12/31 11:51:28;;;;;;;2.43;1.40;;;14.00;82.20;;;;;;5034375;28;20514;-75
2021/12/31 11:54:19;;;;;;;2.80;1.77;;;14.10;82.30;;;;;;5034014;28;20455;-75
2021/12/31 11:56:59;;;;;;;2.27;1.20;;;14.10;82.80;;;;;;5034371;28;20455;-75
2021/12/31 11:59:37;;;;;;;2.33;1.20;;;14.20;82.30;;;;;;5034304;28;20502;-76
2021/12/31 12:02:11;;;;;;;2.60;1.30;;;14.30;82.00;;;;;;5034533;28;20485;-76
2021/12/31 12:04:39;;;;;;;2.47;1.37;;;14.60;82.20;;;;;;5043511;28;20467;-75
2021/12/31 12:07:09;;;;;;;2.40;1.37;;;15.20;79.80;;;;;;5042971;28;20454;-76
2021/12/31 12:10:13;;;;;;;2.30;1.00;;;16.30;77.60;;;;;;5042969;28;20900;-76
2021/12/31 12:12:48;;;;;;;2.17;0.93;;;17.80;71.20;;;;;;5042619;28;20458;-76
2021/12/31 12:15:34;;;;;;;2.27;1.00;;;19.30;68.90;;;;;;5042368;28;20478;-76
2021/12/31 12:18:03;;;;;;;4.30;1.10;;;20.00;65.30;;;;;;5043715;28;20431;-76
2021/12/31 12:20:38;;;;;;;3.80;0.90;;;21.20;62.80;;;;;;5043551;28;20491;-76
2021/12/31 12:23:20;;;;;;;2.10;0.83;;;22.40;59.80;;;;;;5042903;28;20433;-76
2021/12/31 12:25:47;;;;;;;2.57;1.20;;;22.00;59.20;;;;;;5042818;28;20494;-76
2021/12/31 12:28:17;;;;;;;2.30;1.00;;;22.00;58.80;;;;;;5042671;28;20454;-76
2021/12/31 12:30:50;;;;;;;2.20;1.00;;;21.00;61.50;;;;;;5042679;28;20435;-76
2021/12/31 12:33:22;;;;;;;2.40;1.00;;;22.00;60.30;;;;;;5043468;28;20432;-76
2021/12/31 12:35:51;;;;;;;2.33;0.90;;;23.50;55.70;;;;;;5041980;28;21005;-76
2021/12/31 12:38:20;;;;;;;2.20;0.80;;;24.40;54.80;;;;;;5033858;28;20454;-76
2021/12/31 12:40:50;;;;;;;2.30;0.90;;;24.70;54.50;;;;;;5033408;28;21009;-76
2021/12/31 12:43:19;;;;;;;2.20;0.80;;;26.70;51.50;;;;;;5033625;28;20443;-76
2021/12/31 12:45:49;;;;;;;2.13;0.90;;;29.20;46.40;;;;;;5033289;28;20990;-77
2021/12/31 12:48:16;;;;;;;2.10;0.70;;;30.50;44.30;;;;;;5033599;28;20561;-77
2021/12/31 12:50:50;;;;;;;2.10;0.80;;;31.70;41.80;;;;;;5033544;28;20454;-76
2021/12/31 12:53:21;;;;;;;2.00;0.80;;;32.60;39.00;;;;;;5033562;28;20502;-76
2021/12/31 12:55:48;;;;;;;2.67;0.80;;;30.90;41.80;;;;;;5033136;28;20980;-77
2021/12/31 12:58:24;;;;;;;2.13;0.80;;;29.90;43.20;;;;;;5033357;28;20447;-76
2021/12/31 13:00:55;;;;;;;2.20;0.90;;;27.90;45.60;;;;;;5033397;28;20475;-76
2021/12/31 13:03:24;;;;;;;2.40;1.37;;;26.10;48.80;;;;;;5033348;28;20435;-76
2021/12/31 13:06:02;;;;;;;2.37;1.00;;;25.00;51.00;;;;;;5032363;28;20573;-76
2021/12/31 13:08:29;;;;;;;2.20;0.90;;;24.00;53.30;;;;;;5033291;28;20514;-76
2021/12/31 13:10:56;;;;;;;2.10;0.80;;;22.90;55.50;;;;;;5032955;28;21005;-76
2021/12/31 13:13:24;;;;;;;2.90;1.00;;;22.20;57.00;;;;;;5032895;28;20951;-75
2021/12/31 13:15:51;;;;;;;2.20;1.00;;;21.30;59.30;;;;;;5032848;28;20618;-76
2021/12/31 13:18:26;;;;;;;2.30;1.00;;;20.80;60.80;;;;;;5033169;28;20454;-76
2021/12/31 13:20:59;;;;;;;2.23;0.93;;;20.30;61.80;;;;;;5034067;28;20879;-76
2021/12/31 13:23:27;;;;;;;2.20;0.93;;;19.70;63.70;;;;;;5032979;28;21009;-75
2021/12/31 13:25:54;;;;;;;2.53;0.90;;;19.10;65.60;;;;;;5033222;28;20554;-76
2021/12/31 13:28:27;;;;;;;2.30;1.07;;;18.40;67.70;;;;;;5032938;28;20957;-75
2021/12/31 13:30:59;;;;;;;2.30;0.90;;;18.00;69.20;;;;;;5033167;28;20432;-74
2021/12/31 13:33:28;;;;;;;2.10;0.90;;;18.40;69.00;;;;;;5033149;28;20442;-76
2021/12/31 13:36:20;;;;;;;2.40;1.10;;;19.50;66.50;;;;;;5032757;28;20977;-76
2021/12/31 13:39:10;;;;;;;2.20;0.90;;;21.10;62.60;;;;;;5033151;28;20478;-76
2021/12/31 13:41:56;;;;;;;2.23;0.90;;;21.40;59.90;;;;;;5033079;28;20424;-75
2021/12/31 13:44:30;;;;;;;2.33;0.93;;;21.20;60.90;;;;;;5032959;28;20431;-76
2021/12/31 13:47:03;;;;;;;2.20;1.00;;;21.10;61.30;;;;;;5033321;28;20423;-76
2021/12/31 13:49:31;;;;;;;2.10;0.80;;;20.80;62.00;;;;;;5032955;28;20427;-75
2021/12/31 13:51:58;;;;;;;2.40;0.93;;;20.20;63.20;;;;;;5033504;28;20470;-75
2021/12/31 13:54:36;;;;;;;2.37;0.90;;;19.90;63.80;;;;;;5032895;28;20443;-75
2021/12/31 13:57:04;;;;;;;2.47;1.00;;;19.40;65.00;;;;;;5032577;28;20953;-76
2021/12/31 13:59:38;;;;;;;2.50;1.33;;;19.40;66.70;;;;;;5033028;28;20860;-76
2021/12/31 14:02:11;;;;;;;2.20;1.00;;;20.00;64.50;;;;;;5032462;28;20485;-76
2021/12/31 14:05:11;;;;;;;2.73;1.00;;;21.40;62.00;;;;;;5032711;28;20471;-76
2021/12/31 14:07:44;;;;;;;2.17;0.90;;;22.10;58.70;;;;;;5032532;28;20904;-76
2021/12/31 14:10:15;;;;;;;2.10;0.83;;;21.90;58.70;;;;;;5032477;28;20797;-76
2021/12/31 14:12:50;;;;;;;2.07;0.73;;;21.80;59.30;;;;;;5033199;28;20443;-75
2021/12/31 14:15:21;;;;;;;2.20;0.83;;;21.50;60.30;;;;;;5032140;28;20493;-76
2021/12/31 14:17:50;;;;;;;2.20;0.90;;;21.20;60.80;;;;;;5035303;28;20477;-76
2021/12/31 14:20:18;;;;;;;2.40;0.90;;;21.70;60.50;;;;;;5036161;28;20487;-76
2021/12/31 14:22:44;;;;;;;2.10;0.80;;;22.60;58.00;;;;;;5036250;28;20455;-76
2021/12/31 14:25:11;;;;;;;2.17;0.83;;;23.40;56.50;;;;;;5036125;28;20463;-77
2021/12/31 14:27:38;;;;;;;2.37;1.00;;;23.90;54.00;;;;;;5036088;28;20501;-76
2021/12/31 14:30:08;;;;;;;2.30;1.00;;;23.70;54.60;;;;;;5035702;28;20926;-76
2021/12/31 14:32:37;;;;;;;2.10;0.80;;;23.40;55.60;;;;;;5036048;28;20443;-76
2021/12/31 14:35:04;;;;;;;2.40;0.90;;;23.00;56.00;;;;;;5035822;28;20474;-76
2021/12/31 14:37:31;;;;;;;2.37;1.00;;;22.20;57.60;;;;;;5035530;28;20458;-76
2021/12/31 14:39:59;;;;;;;2.10;0.80;;;21.90;58.60;;;;;;5035461;28;20479;-76
2021/12/31 14:42:28;;;;;;;2.07;0.70;;;21.60;59.20;;;;;;5035850;28;20458;-76
2021/12/31 14:44:55;;;;;;;2.10;0.80;;;21.20;59.80;;;;;;5035758;28;20475;-76
2021/12/31 14:47:21;;;;;;;2.27;0.87;;;20.70;61.00;;;;;;5035708;28;20803;-76
2021/12/31 14:49:49;;;;;;;2.20;0.80;;;20.20;62.40;;;;;;5035720;28;20493;-76
2021/12/31 14:52:16;;;;;;;2.27;0.90;;;19.80;63.20;;;;;;5035664;28;20447;-76
2021/12/31 14:54:43;;;;;;;2.33;0.97;;;19.40;64.40;;;;;;5035524;28;20525;-76
2021/12/31 14:57:11;;;;;;;2.20;0.87;;;19.10;65.20;;;;;;5035508;28;20605;-76
2021/12/31 14:59:38;;;;;;;2.30;1.00;;;18.80;66.10;;;;;;5035482;28;20526;-76
2021/12/31 15:02:05;;;;;;;2.20;0.80;;;18.60;66.80;;;;;;5035484;28;20530;-76
2021/12/31 15:04:32;;;;;;;2.17;0.90;;;18.30;67.40;;;;;;5035366;28;20471;-76
2021/12/31 15:07:00;;;;;;;2.47;1.00;;;18.00;68.10;;;;;;5035092;28;20448;-76
2021/12/31 15:09:27;;;;;;;2.30;0.90;;;17.90;68.90;;;;;;5035313;28;20447;-76
2021/12/31 15:11:54;;;;;;;2.40;1.00;;;17.70;69.40;;;;;;5035385;28;20447;-76
2021/12/31 15:14:21;;;;;;;2.20;0.83;;;17.60;69.80;;;;;;5035069;28;20542;-75
2021/12/31 15:16:48;;;;;;;2.63;1.13;;;17.50;70.10;;;;;;5035337;28;20530;-76
2021/12/31 15:19:14;;;;;;;2.93;1.47;;;17.30;70.40;;;;;;5034849;28;20858;-76
2021/12/31 15:21:42;;;;;;;2.63;0.97;;;17.10;71.00;;;;;;5034728;28;20859;-76
2021/12/31 15:24:10;;;;;;;2.60;0.90;;;17.00;71.50;;;;;;5035058;28;20843;-75
2021/12/31 15:26:42;;;;;;;2.50;1.30;;;16.80;72.00;;;;;;5035145;28;20447;-75
2021/12/31 15:29:10;;;;;;;2.73;1.10;;;16.70;72.40;;;;;;5034207;28;20475;-75
2021/12/31 15:31:37;;;;;;;2.50;1.10;;;16.60;72.50;;;;;;5035030;28;20447;-75
2021/12/31 15:34:03;;;;;;;2.47;1.20;;;16.50;73.00;;;;;;5034963;28;20443;-75
2021/12/31 15:36:30;;;;;;;2.33;1.20;;;16.30;72.90;;;;;;5034812;28;20463;-75
2021/12/31 15:38:57;;;;;;;3.17;0.97;;;16.20;73.40;;;;;;5034822;28;20498;-75
2021/12/31 15:41:25;;;;;;;2.30;1.00;;;16.10;73.90;;;;;;5034741;28;20545;-75
2021/12/31 15:43:52;;;;;;;2.53;1.27;;;16.10;74.00;;;;;;5034431;28;20935;-75
2021/12/31 15:46:19;;;;;;;2.70;1.10;;;15.90;73.90;;;;;;5034675;28;20463;-74
2021/12/31 15:48:46;;;;;;;3.23;1.30;;;15.70;74.40;;;;;;5034720;28;20447;-75
2021/12/31 15:51:12;;;;;;;2.57;1.40;;;15.50;75.00;;;;;;5034741;28;20454;-75
2021/12/31 15:53:39;;;;;;;2.60;1.70;;;15.50;75.50;;;;;;5034603;28;20447;-75
2021/12/31 15:56:10;;;;;;;3.00;2.10;;;15.40;75.40;;;;;;5034156;28;20978;-75
2021/12/31 15:58:38;;;;;;;3.23;2.37;;;15.30;75.60;;;;;;5034654;28;20466;-75
2021/12/31 16:01:05;;;;;;;3.60;2.20;;;15.20;75.90;;;;;;5034451;28;20522;-75
2021/12/31 16:03:32;;;;;;;3.20;2.40;;;15.20;75.70;;;;;;5034298;28;20463;-75
2021/12/31 16:05:58;;;;;;;4.53;2.93;;;15.10;76.10;;;;;;5034166;28;20517;-75
2021/12/31 16:08:25;;;;;;;3.10;2.17;;;15.10;76.00;;;;;;5034325;28;20501;-75
2021/12/31 16:10:52;;;;;;;3.17;2.00;;;15.00;76.60;;;;;;5033947;28;20950;-74
2021/12/31 16:13:18;;;;;;;3.23;2.20;;;14.90;76.60;;;;;;5034036;28;20456;-75
2021/12/31 16:15:46;;;;;;;6.00;2.10;;;14.80;76.50;;;;;;5058197;22;20490;-76
2021/12/31 16:18:13;;;;;;;3.20;2.27;;;14.50;77.20;;;;;;5034058;28;20513;-76
2021/12/31 16:20:40;;;;;;;3.30;2.50;;;14.50;77.60;;;;;;5033945;28;20485;-76
2021/12/31 16:23:06;;;;;;;3.13;2.50;;;14.50;77.60;;;;;;5033960;28;20451;-76
2021/12/31 16:25:33;;;;;;;3.33;1.97;;;14.40;77.50;;;;;;5033831;28;20478;-76
2021/12/31 16:28:00;;;;;;;2.70;1.60;;;14.20;78.20;;;;;;5033900;28;20443;-76
2021/12/31 16:30:26;;;;;;;2.60;1.40;;;14.10;78.50;;;;;;5034008;28;20640;-76
2021/12/31 16:32:54;;;;;;;2.23;0.97;;;14.10;78.60;;;;;;5033805;28;20862;-76
2021/12/31 16:35:21;;;;;;;2.20;0.90;;;13.90;78.70;;;;;;5033414;28;20889;-77
2021/12/31 16:37:48;;;;;;;2.10;0.83;;;13.90;79.00;;;;;;5033732;28;20439;-76
2021/12/31 16:40:16;;;;;;;2.10;0.80;;;14.00;78.90;;;;;;5033550;28;20530;-76
2021/12/31 16:42:43;;;;;;;2.03;0.80;;;14.10;78.30;;;;;;5033727;28;20809;-76
2021/12/31 16:45:12;;;;;;;2.23;0.70;;;14.10;78.10;;;;;;5033582;28;20463;-75
2021/12/31 16:47:39;;;;;;;2.20;1.00;;;13.90;78.30;;;;;;5033376;28;20882;-76
2021/12/31 16:50:08;;;;;;;2.40;0.90;;;13.90;78.30;;;;;;5033325;28;21013;-76
2021/12/31 16:52:35;;;;;;;2.30;0.90;;;13.80;77.60;;;;;;5033701;28;20448;-76
2021/12/31 16:55:04;;;;;;;2.20;0.90;;;13.90;77.70;;;;;;5033477;28;20517;-76
2021/12/31 16:57:31;;;;;;;2.50;1.20;;;14.00;77.10;;;;;;5033762;28;20481;-76